sensor_id;sensor_type;location;lat;lon;timestamp;P1;durP1;ratioP1;P2;durP2;ratioP2
4434;SDS011;46552;52.150;8.428;2022-07-15T00:00:07;5.90;;;3.17;;
4434;SDS011;46552;52.150;8.428;2022-07-15T00:02:35;6.80;;;3.00;;
4434;SDS011;46552;52.150;8.428;2022-07-15T00:05:02;8.43;;;2.60;;
4434;SDS011;46552;52.150;8.428;2022-07-15T00:07:31;15.30;;;2.93;;
4434;SDS011;46552;52.150;8.428;2022-07-15T00:10:00;10.77;;;3.37;;
4434;SDS011;46552;52.150;8.428;2022-07-15T00:12:41;5.13;;;2.33;;
4434;SDS011;46552;52.150;8.428;2022-07-15T00:15:09;12.27;;;2.87;;
4434;SDS011;46552;52.150;8.428;2022-07-15T00:17:38;5.70;;;2.60;;
4434;SDS011;46552;52.150;8.428;2022-07-15T00:20:06;5.33;;;2.07;;
4434;SDS011;46552;52.150;8.428;2022-07-15T00:22:34;10.37;;;3.77;;
4434;SDS011;46552;52.150;8.428;2022-07-15T00:25:03;9.00;;;2.70;;
4434;SDS011;46552;52.150;8.428;2022-07-15T00:27:32;8.93;;;2.60;;
4434;SDS011;46552;52.150;8.428;2022-07-15T00:29:59;5.87;;;2.60;;
4434;SDS011;46552;52.150;8.428;2022-07-15T00:32:26;8.43;;;2.60;;
4434;SDS011;46552;52.150;8.428;2022-07-15T00:34:53;5.53;;;2.47;;
4434;SDS011;46552;52.150;8.428;2022-07-15T00:37:20;10.37;;;2.93;;
4434;SDS011;46552;52.150;8.428;2022-07-15T00:39:51;6.60;;;3.13;;
4434;SDS011;46552;52.150;8.428;2022-07-15T00:42:19;6.90;;;2.80;;
4434;SDS011;46552;52.150;8.428;2022-07-15T00:45:00;7.27;;;2.70;;
4434;SDS011;46552;52.150;8.428;2022-07-15T00:47:28;7.03;;;2.90;;
4434;SDS011;46552;52.150;8.428;2022-07-15T00:49:55;8.20;;;2.90;;
4434;SDS011;46552;52.150;8.428;2022-07-15T00:52:23;5.70;;;2.50;;
4434;SDS011;46552;52.150;8.428;2022-07-15T00:54:53;7.83;;;2.30;;
4434;SDS011;46552;52.150;8.428;2022-07-15T00:57:26;12.40;;;2.87;;
4434;SDS011;46552;52.150;8.428;2022-07-15T00:59:54;4.53;;;2.70;;
4434;SDS011;46552;52.150;8.428;2022-07-15T01:02:25;9.23;;;2.30;;
4434;SDS011;46552;52.150;8.428;2022-07-15T01:04:52;8.37;;;2.70;;
4434;SDS011;46552;52.150;8.428;2022-07-15T01:07:21;8.50;;;2.80;;
4434;SDS011;46552;52.150;8.428;2022-07-15T01:09:49;13.67;;;3.80;;
4434;SDS011;46552;52.150;8.428;2022-07-15T01:12:16;5.50;;;2.70;;
4434;SDS011;46552;52.150;8.428;2022-07-15T01:14:45;5.53;;;2.83;;
4434;SDS011;46552;52.150;8.428;2022-07-15T01:17:12;7.73;;;3.20;;
4434;SDS011;46552;52.150;8.428;2022-07-15T01:19:40;5.27;;;3.37;;
4434;SDS011;46552;52.150;8.428;2022-07-15T01:22:09;10.33;;;2.60;;
4434;SDS011;46552;52.150;8.428;2022-07-15T01:24:36;8.80;;;3.13;;
4434;SDS011;46552;52.150;8.428;2022-07-15T01:27:04;6.03;;;2.37;;
4434;SDS011;46552;52.150;8.428;2022-07-15T01:29:32;12.43;;;3.10;;
4434;SDS011;46552;52.150;8.428;2022-07-15T01:32:01;7.97;;;3.03;;
4434;SDS011;46552;52.150;8.428;2022-07-15T01:34:28;6.33;;;3.47;;
4434;SDS011;46552;52.150;8.428;2022-07-15T01:36:56;9.23;;;2.33;;
4434;SDS011;46552;52.150;8.428;2022-07-15T01:39:26;6.27;;;3.10;;
4434;SDS011;46552;52.150;8.428;2022-07-15T01:41:53;10.13;;;3.67;;
4434;SDS011;46552;52.150;8.428;2022-07-15T01:44:20;10.90;;;3.33;;
4434;SDS011;46552;52.150;8.428;2022-07-15T01:46:47;9.80;;;3.70;;
4434;SDS011;46552;52.150;8.428;2022-07-15T01:49:14;12.47;;;3.60;;
4434;SDS011;46552;52.150;8.428;2022-07-15T01:51:57;5.23;;;2.97;;
4434;SDS011;46552;52.150;8.428;2022-07-15T01:54:27;12.60;;;4.20;;
4434;SDS011;46552;52.150;8.428;2022-07-15T01:56:55;11.50;;;3.63;;
4434;SDS011;46552;52.150;8.428;2022-07-15T01:59:23;5.90;;;3.07;;
4434;SDS011;46552;52.150;8.428;2022-07-15T02:01:51;14.07;;;3.53;;
4434;SDS011;46552;52.150;8.428;2022-07-15T02:04:21;7.80;;;3.37;;
4434;SDS011;46552;52.150;8.428;2022-07-15T02:06:48;14.40;;;3.93;;
4434;SDS011;46552;52.150;8.428;2022-07-15T02:09:16;13.20;;;4.03;;
4434;SDS011;46552;52.150;8.428;2022-07-15T02:11:46;7.87;;;4.20;;
4434;SDS011;46552;52.150;8.428;2022-07-15T02:14:13;20.23;;;4.20;;
4434;SDS011;46552;52.150;8.428;2022-07-15T02:16:40;16.33;;;3.77;;
4434;SDS011;46552;52.150;8.428;2022-07-15T02:19:07;19.27;;;4.80;;
4434;SDS011;46552;52.150;8.428;2022-07-15T02:21:35;7.93;;;4.30;;
4434;SDS011;46552;52.150;8.428;2022-07-15T02:24:02;12.63;;;4.00;;
4434;SDS011;46552;52.150;8.428;2022-07-15T02:26:30;7.63;;;3.30;;
4434;SDS011;46552;52.150;8.428;2022-07-15T02:29:02;9.83;;;3.50;;
4434;SDS011;46552;52.150;8.428;2022-07-15T02:31:29;9.43;;;3.77;;
4434;SDS011;46552;52.150;8.428;2022-07-15T02:33:56;12.10;;;3.40;;
4434;SDS011;46552;52.150;8.428;2022-07-15T02:36:24;11.80;;;3.63;;
4434;SDS011;46552;52.150;8.428;2022-07-15T02:38:50;10.43;;;4.13;;
4434;SDS011;46552;52.150;8.428;2022-07-15T02:41:17;12.03;;;3.70;;
4434;SDS011;46552;52.150;8.428;2022-07-15T02:43:44;7.37;;;3.37;;
4434;SDS011;46552;52.150;8.428;2022-07-15T02:46:13;9.47;;;4.17;;
4434;SDS011;46552;52.150;8.428;2022-07-15T02:48:40;16.80;;;4.87;;
4434;SDS011;46552;52.150;8.428;2022-07-15T02:51:08;14.47;;;3.97;;
4434;SDS011;46552;52.150;8.428;2022-07-15T02:53:36;8.23;;;3.77;;
4434;SDS011;46552;52.150;8.428;2022-07-15T02:56:04;12.97;;;3.97;;
4434;SDS011;46552;52.150;8.428;2022-07-15T02:58:32;14.63;;;3.97;;
4434;SDS011;46552;52.150;8.428;2022-07-15T03:01:00;13.07;;;3.97;;
4434;SDS011;46552;52.150;8.428;2022-07-15T03:03:29;8.40;;;4.23;;
4434;SDS011;46552;52.150;8.428;2022-07-15T03:05:56;11.80;;;4.53;;
4434;SDS011;46552;52.150;8.428;2022-07-15T03:08:24;13.27;;;4.43;;
4434;SDS011;46552;52.150;8.428;2022-07-15T03:10:51;12.40;;;4.20;;
4434;SDS011;46552;52.150;8.428;2022-07-15T03:13:18;12.90;;;4.17;;
4434;SDS011;46552;52.150;8.428;2022-07-15T03:15:45;10.70;;;4.87;;
4434;SDS011;46552;52.150;8.428;2022-07-15T03:18:13;15.13;;;4.37;;
4434;SDS011;46552;52.150;8.428;2022-07-15T03:20:41;8.80;;;4.50;;
4434;SDS011;46552;52.150;8.428;2022-07-15T03:23:11;12.87;;;3.57;;
4434;SDS011;46552;52.150;8.428;2022-07-15T03:25:38;17.93;;;4.73;;
4434;SDS011;46552;52.150;8.428;2022-07-15T03:28:05;11.67;;;3.97;;
4434;SDS011;46552;52.150;8.428;2022-07-15T03:30:32;15.53;;;4.63;;
4434;SDS011;46552;52.150;8.428;2022-07-15T03:32:59;12.50;;;4.50;;
4434;SDS011;46552;52.150;8.428;2022-07-15T03:35:27;12.67;;;4.27;;
4434;SDS011;46552;52.150;8.428;2022-07-15T03:37:57;11.60;;;4.50;;
4434;SDS011;46552;52.150;8.428;2022-07-15T03:40:24;13.20;;;4.47;;
4434;SDS011;46552;52.150;8.428;2022-07-15T03:42:51;10.53;;;3.90;;
4434;SDS011;46552;52.150;8.428;2022-07-15T03:45:18;12.00;;;4.30;;
4434;SDS011;46552;52.150;8.428;2022-07-15T03:47:45;7.73;;;4.10;;
4434;SDS011;46552;52.150;8.428;2022-07-15T03:50:12;12.90;;;4.97;;
4434;SDS011;46552;52.150;8.428;2022-07-15T03:52:40;12.13;;;4.77;;
4434;SDS011;46552;52.150;8.428;2022-07-15T03:55:10;9.40;;;5.03;;
4434;SDS011;46552;52.150;8.428;2022-07-15T03:57:37;12.50;;;4.37;;
4434;SDS011;46552;52.150;8.428;2022-07-15T04:00:05;15.43;;;4.47;;
4434;SDS011;46552;52.150;8.428;2022-07-15T04:02:35;15.20;;;5.10;;
4434;SDS011;46552;52.150;8.428;2022-07-15T04:05:04;12.47;;;4.27;;
4434;SDS011;46552;52.150;8.428;2022-07-15T04:07:32;7.43;;;3.80;;
4434;SDS011;46552;52.150;8.428;2022-07-15T04:10:00;15.57;;;4.73;;
4434;SDS011;46552;52.150;8.428;2022-07-15T04:12:29;15.83;;;4.80;;
4434;SDS011;46552;52.150;8.428;2022-07-15T04:14:56;18.20;;;5.10;;
4434;SDS011;46552;52.150;8.428;2022-07-15T04:17:23;17.90;;;4.77;;
4434;SDS011;46552;52.150;8.428;2022-07-15T04:19:51;15.80;;;5.00;;
4434;SDS011;46552;52.150;8.428;2022-07-15T04:22:18;20.93;;;5.20;;
4434;SDS011;46552;52.150;8.428;2022-07-15T04:24:46;6.90;;;4.43;;
4434;SDS011;46552;52.150;8.428;2022-07-15T04:27:13;11.30;;;4.30;;
4434;SDS011;46552;52.150;8.428;2022-07-15T04:29:43;12.73;;;4.37;;
4434;SDS011;46552;52.150;8.428;2022-07-15T04:32:10;15.03;;;5.13;;
4434;SDS011;46552;52.150;8.428;2022-07-15T04:34:38;11.57;;;4.50;;
4434;SDS011;46552;52.150;8.428;2022-07-15T04:37:06;17.00;;;5.03;;
4434;SDS011;46552;52.150;8.428;2022-07-15T04:39:33;9.50;;;4.30;;
4434;SDS011;46552;52.150;8.428;2022-07-15T04:42:00;11.17;;;4.30;;
4434;SDS011;46552;52.150;8.428;2022-07-15T04:44:27;14.57;;;4.67;;
4434;SDS011;46552;52.150;8.428;2022-07-15T04:46:55;11.70;;;4.10;;
4434;SDS011;46552;52.150;8.428;2022-07-15T04:49:23;13.40;;;5.00;;
4434;SDS011;46552;52.150;8.428;2022-07-15T04:52:08;10.27;;;4.63;;
4434;SDS011;46552;52.150;8.428;2022-07-15T04:54:35;10.47;;;4.70;;
4434;SDS011;46552;52.150;8.428;2022-07-15T04:57:02;8.47;;;4.23;;
4434;SDS011;46552;52.150;8.428;2022-07-15T04:59:30;16.43;;;4.50;;
4434;SDS011;46552;52.150;8.428;2022-07-15T05:02:00;17.00;;;4.77;;
4434;SDS011;46552;52.150;8.428;2022-07-15T05:04:27;16.73;;;5.50;;
4434;SDS011;46552;52.150;8.428;2022-07-15T05:06:54;19.57;;;5.17;;
4434;SDS011;46552;52.150;8.428;2022-07-15T05:09:22;13.13;;;4.70;;
4434;SDS011;46552;52.150;8.428;2022-07-15T05:11:49;14.87;;;4.20;;
4434;SDS011;46552;52.150;8.428;2022-07-15T05:14:16;13.60;;;4.53;;
4434;SDS011;46552;52.150;8.428;2022-07-15T05:16:43;16.60;;;4.20;;
4434;SDS011;46552;52.150;8.428;2022-07-15T05:19:12;10.60;;;4.07;;
4434;SDS011;46552;52.150;8.428;2022-07-15T05:21:39;14.30;;;4.70;;
4434;SDS011;46552;52.150;8.428;2022-07-15T05:24:08;13.33;;;4.00;;
4434;SDS011;46552;52.150;8.428;2022-07-15T05:26:36;21.30;;;4.20;;
4434;SDS011;46552;52.150;8.428;2022-07-15T05:29:03;18.13;;;3.07;;
4434;SDS011;46552;52.150;8.428;2022-07-15T05:31:30;14.47;;;3.60;;
4434;SDS011;46552;52.150;8.428;2022-07-15T05:33:57;14.20;;;4.00;;
4434;SDS011;46552;52.150;8.428;2022-07-15T05:36:26;17.57;;;4.03;;
4434;SDS011;46552;52.150;8.428;2022-07-15T05:38:53;18.93;;;3.30;;
4434;SDS011;46552;52.150;8.428;2022-07-15T05:41:20;11.90;;;3.40;;
4434;SDS011;46552;52.150;8.428;2022-07-15T05:43:47;17.57;;;3.10;;
4434;SDS011;46552;52.150;8.428;2022-07-15T05:46:15;14.00;;;3.17;;
4434;SDS011;46552;52.150;8.428;2022-07-15T05:48:42;8.10;;;3.20;;
4434;SDS011;46552;52.150;8.428;2022-07-15T05:51:08;14.50;;;3.63;;
4434;SDS011;46552;52.150;8.428;2022-07-15T05:53:39;13.07;;;3.10;;
4434;SDS011;46552;52.150;8.428;2022-07-15T05:56:06;16.97;;;3.00;;
4434;SDS011;46552;52.150;8.428;2022-07-15T05:58:33;14.30;;;3.60;;
4434;SDS011;46552;52.150;8.428;2022-07-15T06:01:01;9.27;;;3.13;;
4434;SDS011;46552;52.150;8.428;2022-07-15T06:03:29;12.43;;;2.80;;
4434;SDS011;46552;52.150;8.428;2022-07-15T06:05:56;13.77;;;3.03;;
4434;SDS011;46552;52.150;8.428;2022-07-15T06:08:24;17.83;;;2.73;;
4434;SDS011;46552;52.150;8.428;2022-07-15T06:10:53;11.23;;;2.47;;
4434;SDS011;46552;52.150;8.428;2022-07-15T06:13:21;11.63;;;3.00;;
4434;SDS011;46552;52.150;8.428;2022-07-15T06:15:49;7.97;;;2.70;;
4434;SDS011;46552;52.150;8.428;2022-07-15T06:18:17;13.87;;;3.20;;
4434;SDS011;46552;52.150;8.428;2022-07-15T06:20:44;16.07;;;3.00;;
4434;SDS011;46552;52.150;8.428;2022-07-15T06:23:11;10.77;;;2.53;;
4434;SDS011;46552;52.150;8.428;2022-07-15T06:25:39;7.73;;;2.40;;
4434;SDS011;46552;52.150;8.428;2022-07-15T06:28:08;7.20;;;2.30;;
4434;SDS011;46552;52.150;8.428;2022-07-15T06:30:36;10.03;;;2.10;;
4434;SDS011;46552;52.150;8.428;2022-07-15T06:33:03;6.50;;;2.50;;
4434;SDS011;46552;52.150;8.428;2022-07-15T06:35:31;10.70;;;2.20;;
4434;SDS011;46552;52.150;8.428;2022-07-15T06:37:58;14.80;;;2.77;;
4434;SDS011;46552;52.150;8.428;2022-07-15T06:40:26;19.17;;;3.23;;
4434;SDS011;46552;52.150;8.428;2022-07-15T06:42:53;13.00;;;2.83;;
4434;SDS011;46552;52.150;8.428;2022-07-15T06:45:23;16.20;;;3.10;;
4434;SDS011;46552;52.150;8.428;2022-07-15T06:47:50;9.60;;;2.80;;
4434;SDS011;46552;52.150;8.428;2022-07-15T06:50:17;9.97;;;2.60;;
4434;SDS011;46552;52.150;8.428;2022-07-15T06:52:47;6.87;;;1.97;;
4434;SDS011;46552;52.150;8.428;2022-07-15T06:55:14;13.03;;;2.90;;
4434;SDS011;46552;52.150;8.428;2022-07-15T06:57:41;9.33;;;2.23;;
4434;SDS011;46552;52.150;8.428;2022-07-15T07:00:09;6.70;;;1.80;;
4434;SDS011;46552;52.150;8.428;2022-07-15T07:02:38;14.23;;;2.73;;
4434;SDS011;46552;52.150;8.428;2022-07-15T07:05:06;10.37;;;2.40;;
4434;SDS011;46552;52.150;8.428;2022-07-15T07:07:34;11.77;;;2.13;;
4434;SDS011;46552;52.150;8.428;2022-07-15T07:10:02;14.13;;;1.73;;
4434;SDS011;46552;52.150;8.428;2022-07-15T07:12:30;8.03;;;1.87;;
4434;SDS011;46552;52.150;8.428;2022-07-15T07:14:57;6.77;;;2.17;;
4434;SDS011;46552;52.150;8.428;2022-07-15T07:17:26;10.83;;;1.53;;
4434;SDS011;46552;52.150;8.428;2022-07-15T07:19:56;10.30;;;1.57;;
4434;SDS011;46552;52.150;8.428;2022-07-15T07:22:23;7.53;;;1.87;;
4434;SDS011;46552;52.150;8.428;2022-07-15T07:24:51;9.33;;;2.07;;
4434;SDS011;46552;52.150;8.428;2022-07-15T07:27:19;5.27;;;1.20;;
4434;SDS011;46552;52.150;8.428;2022-07-15T07:29:46;6.90;;;1.60;;
4434;SDS011;46552;52.150;8.428;2022-07-15T07:32:13;3.83;;;1.63;;
4434;SDS011;46552;52.150;8.428;2022-07-15T07:34:40;6.53;;;1.77;;
4434;SDS011;46552;52.150;8.428;2022-07-15T07:37:08;8.47;;;1.60;;
4434;SDS011;46552;52.150;8.428;2022-07-15T07:39:36;8.17;;;2.00;;
4434;SDS011;46552;52.150;8.428;2022-07-15T07:42:03;6.40;;;1.73;;
4434;SDS011;46552;52.150;8.428;2022-07-15T07:44:46;17.20;;;2.47;;
4434;SDS011;46552;52.150;8.428;2022-07-15T07:47:13;8.93;;;1.63;;
4434;SDS011;46552;52.150;8.428;2022-07-15T07:49:40;2.80;;;1.13;;
4434;SDS011;46552;52.150;8.428;2022-07-15T07:52:08;7.67;;;1.27;;
4434;SDS011;46552;52.150;8.428;2022-07-15T07:54:35;6.20;;;1.30;;
4434;SDS011;46552;52.150;8.428;2022-07-15T07:57:02;9.07;;;0.90;;
4434;SDS011;46552;52.150;8.428;2022-07-15T07:59:31;4.17;;;0.77;;
4434;SDS011;46552;52.150;8.428;2022-07-15T08:01:58;5.83;;;1.00;;
4434;SDS011;46552;52.150;8.428;2022-07-15T08:04:25;5.70;;;1.10;;
4434;SDS011;46552;52.150;8.428;2022-07-15T08:06:52;6.00;;;1.60;;
4434;SDS011;46552;52.150;8.428;2022-07-15T08:09:21;7.73;;;1.30;;
4434;SDS011;46552;52.150;8.428;2022-07-15T08:11:49;3.23;;;0.90;;
4434;SDS011;46552;52.150;8.428;2022-07-15T08:14:18;3.40;;;0.83;;
4434;SDS011;46552;52.150;8.428;2022-07-15T08:16:45;4.43;;;0.90;;
4434;SDS011;46552;52.150;8.428;2022-07-15T08:19:14;9.37;;;1.20;;
4434;SDS011;46552;52.150;8.428;2022-07-15T08:21:42;7.13;;;1.23;;
4434;SDS011;46552;52.150;8.428;2022-07-15T08:24:09;7.03;;;1.13;;
4434;SDS011;46552;52.150;8.428;2022-07-15T08:26:38;6.97;;;1.40;;
4434;SDS011;46552;52.150;8.428;2022-07-15T08:29:06;5.27;;;1.10;;
4434;SDS011;46552;52.150;8.428;2022-07-15T08:31:34;5.93;;;1.10;;
4434;SDS011;46552;52.150;8.428;2022-07-15T08:34:02;4.40;;;1.10;;
4434;SDS011;46552;52.150;8.428;2022-07-15T08:36:29;6.37;;;1.20;;
4434;SDS011;46552;52.150;8.428;2022-07-15T08:38:57;4.37;;;1.20;;
4434;SDS011;46552;52.150;8.428;2022-07-15T08:41:24;5.90;;;2.00;;
4434;SDS011;46552;52.150;8.428;2022-07-15T08:43:53;4.80;;;1.23;;
4434;SDS011;46552;52.150;8.428;2022-07-15T08:46:20;6.70;;;1.63;;
4434;SDS011;46552;52.150;8.428;2022-07-15T08:48:51;9.97;;;1.23;;
4434;SDS011;46552;52.150;8.428;2022-07-15T08:51:22;5.57;;;1.63;;
4434;SDS011;46552;52.150;8.428;2022-07-15T08:53:50;4.20;;;1.20;;
4434;SDS011;46552;52.150;8.428;2022-07-15T08:56:17;4.80;;;1.00;;
4434;SDS011;46552;52.150;8.428;2022-07-15T08:58:45;6.03;;;2.27;;
4434;SDS011;46552;52.150;8.428;2022-07-15T09:01:16;7.80;;;1.67;;
4434;SDS011;46552;52.150;8.428;2022-07-15T09:03:43;4.03;;;0.93;;
4434;SDS011;46552;52.150;8.428;2022-07-15T09:06:11;6.23;;;1.53;;
4434;SDS011;46552;52.150;8.428;2022-07-15T09:08:57;7.60;;;1.90;;
4434;SDS011;46552;52.150;8.428;2022-07-15T09:11:27;5.17;;;1.10;;
4434;SDS011;46552;52.150;8.428;2022-07-15T09:13:57;5.67;;;1.17;;
4434;SDS011;46552;52.150;8.428;2022-07-15T09:16:27;8.80;;;1.40;;
4434;SDS011;46552;52.150;8.428;2022-07-15T09:18:54;7.50;;;1.90;;
4434;SDS011;46552;52.150;8.428;2022-07-15T09:21:21;7.17;;;1.53;;
4434;SDS011;46552;52.150;8.428;2022-07-15T09:23:51;5.17;;;1.20;;
4434;SDS011;46552;52.150;8.428;2022-07-15T09:26:21;3.50;;;1.20;;
4434;SDS011;46552;52.150;8.428;2022-07-15T09:28:51;5.73;;;1.43;;
4434;SDS011;46552;52.150;8.428;2022-07-15T09:31:31;4.53;;;1.37;;
4434;SDS011;46552;52.150;8.428;2022-07-15T09:34:17;3.30;;;1.10;;
4434;SDS011;46552;52.150;8.428;2022-07-15T09:36:45;4.57;;;1.53;;
4434;SDS011;46552;52.150;8.428;2022-07-15T09:39:16;5.63;;;1.00;;
4434;SDS011;46552;52.150;8.428;2022-07-15T09:41:44;4.43;;;1.20;;
4434;SDS011;46552;52.150;8.428;2022-07-15T09:44:14;6.13;;;1.13;;
4434;SDS011;46552;52.150;8.428;2022-07-15T09:46:44;4.93;;;0.80;;
4434;SDS011;46552;52.150;8.428;2022-07-15T09:49:13;8.17;;;1.00;;
4434;SDS011;46552;52.150;8.428;2022-07-15T09:51:43;5.00;;;1.47;;
4434;SDS011;46552;52.150;8.428;2022-07-15T09:54:12;3.90;;;1.03;;
4434;SDS011;46552;52.150;8.428;2022-07-15T09:56:41;6.67;;;0.90;;
4434;SDS011;46552;52.150;8.428;2022-07-15T09:59:08;5.33;;;1.17;;
4434;SDS011;46552;52.150;8.428;2022-07-15T10:01:35;4.17;;;0.97;;
4434;SDS011;46552;52.150;8.428;2022-07-15T10:04:04;5.70;;;1.07;;
4434;SDS011;46552;52.150;8.428;2022-07-15T10:06:32;7.10;;;0.97;;
4434;SDS011;46552;52.150;8.428;2022-07-15T10:09:03;11.37;;;1.37;;
4434;SDS011;46552;52.150;8.428;2022-07-15T10:11:31;4.63;;;1.20;;
4434;SDS011;46552;52.150;8.428;2022-07-15T10:20:13;2.20;;;0.70;;
4434;SDS011;46552;52.150;8.428;2022-07-15T10:23:07;4.27;;;0.70;;
4434;SDS011;46552;52.150;8.428;2022-07-15T10:25:49;4.70;;;1.20;;
4434;SDS011;46552;52.150;8.428;2022-07-15T10:28:24;4.33;;;0.80;;
4434;SDS011;46552;52.150;8.428;2022-07-15T10:31:18;4.33;;;1.20;;
4434;SDS011;46552;52.150;8.428;2022-07-15T10:36:58;4.23;;;0.90;;
4434;SDS011;46552;52.150;8.428;2022-07-15T10:39:51;4.63;;;0.87;;
4434;SDS011;46552;52.150;8.428;2022-07-15T10:45:28;8.37;;;1.00;;
4434;SDS011;46552;52.150;8.428;2022-07-15T10:50:51;2.27;;;0.70;;
4434;SDS011;46552;52.150;8.428;2022-07-15T10:53:21;8.23;;;1.47;;
4434;SDS011;46552;52.150;8.428;2022-07-15T10:55:49;9.13;;;1.73;;
4434;SDS011;46552;52.150;8.428;2022-07-15T10:58:17;7.17;;;2.07;;
4434;SDS011;46552;52.150;8.428;2022-07-15T11:00:45;2.97;;;0.97;;
4434;SDS011;46552;52.150;8.428;2022-07-15T11:03:14;4.60;;;0.70;;
4434;SDS011;46552;52.150;8.428;2022-07-15T11:06:02;3.60;;;0.80;;
4434;SDS011;46552;52.150;8.428;2022-07-15T11:08:51;4.83;;;0.60;;
4434;SDS011;46552;52.150;8.428;2022-07-15T11:17:12;3.90;;;0.73;;
4434;SDS011;46552;52.150;8.428;2022-07-15T11:19:42;14.17;;;0.80;;
4434;SDS011;46552;52.150;8.428;2022-07-15T11:22:11;4.97;;;1.10;;
4434;SDS011;46552;52.150;8.428;2022-07-15T11:24:41;4.13;;;0.97;;
4434;SDS011;46552;52.150;8.428;2022-07-15T11:27:08;2.70;;;0.90;;
4434;SDS011;46552;52.150;8.428;2022-07-15T11:29:46;2.33;;;0.67;;
4434;SDS011;46552;52.150;8.428;2022-07-15T11:32:16;11.57;;;1.30;;
4434;SDS011;46552;52.150;8.428;2022-07-15T11:34:45;5.87;;;1.57;;
4434;SDS011;46552;52.150;8.428;2022-07-15T11:37:13;6.03;;;1.10;;
4434;SDS011;46552;52.150;8.428;2022-07-15T11:39:50;3.37;;;1.17;;
4434;SDS011;46552;52.150;8.428;2022-07-15T11:42:30;10.63;;;0.83;;
4434;SDS011;46552;52.150;8.428;2022-07-15T11:45:18;7.53;;;0.83;;
4434;SDS011;46552;52.150;8.428;2022-07-15T11:47:58;12.30;;;1.50;;
4434;SDS011;46552;52.150;8.428;2022-07-15T11:50:26;3.93;;;0.70;;
4434;SDS011;46552;52.150;8.428;2022-07-15T11:52:55;9.13;;;0.63;;
4434;SDS011;46552;52.150;8.428;2022-07-15T11:55:24;5.43;;;1.33;;
4434;SDS011;46552;52.150;8.428;2022-07-15T11:57:51;2.80;;;0.93;;
4434;SDS011;46552;52.150;8.428;2022-07-15T12:00:27;5.13;;;1.20;;
4434;SDS011;46552;52.150;8.428;2022-07-15T12:03:06;5.10;;;0.90;;
4434;SDS011;46552;52.150;8.428;2022-07-15T12:05:33;6.47;;;0.77;;
4434;SDS011;46552;52.150;8.428;2022-07-15T12:08:00;4.57;;;0.90;;
4434;SDS011;46552;52.150;8.428;2022-07-15T12:10:36;8.90;;;1.00;;
4434;SDS011;46552;52.150;8.428;2022-07-15T12:13:04;13.73;;;0.90;;
4434;SDS011;46552;52.150;8.428;2022-07-15T12:15:32;5.27;;;0.80;;
4434;SDS011;46552;52.150;8.428;2022-07-15T12:18:00;4.33;;;0.80;;
4434;SDS011;46552;52.150;8.428;2022-07-15T12:20:28;4.30;;;1.13;;
4434;SDS011;46552;52.150;8.428;2022-07-15T12:23:02;4.07;;;1.13;;
4434;SDS011;46552;52.150;8.428;2022-07-15T12:25:30;4.20;;;1.00;;
4434;SDS011;46552;52.150;8.428;2022-07-15T12:27:59;2.73;;;0.77;;
4434;SDS011;46552;52.150;8.428;2022-07-15T12:30:31;2.50;;;0.83;;
4434;SDS011;46552;52.150;8.428;2022-07-15T12:33:14;3.40;;;0.93;;
4434;SDS011;46552;52.150;8.428;2022-07-15T12:35:42;2.70;;;0.70;;
4434;SDS011;46552;52.150;8.428;2022-07-15T12:38:14;4.33;;;1.13;;
4434;SDS011;46552;52.150;8.428;2022-07-15T12:40:51;5.00;;;1.10;;
4434;SDS011;46552;52.150;8.428;2022-07-15T12:43:22;4.33;;;1.20;;
4434;SDS011;46552;52.150;8.428;2022-07-15T12:46:13;9.77;;;1.00;;
4434;SDS011;46552;52.150;8.428;2022-07-15T12:48:43;3.70;;;1.40;;
4434;SDS011;46552;52.150;8.428;2022-07-15T12:51:11;3.37;;;1.30;;
4434;SDS011;46552;52.150;8.428;2022-07-15T12:53:39;8.53;;;1.87;;
4434;SDS011;46552;52.150;8.428;2022-07-15T12:56:07;5.33;;;1.17;;
4434;SDS011;46552;52.150;8.428;2022-07-15T12:58:36;5.60;;;1.13;;
4434;SDS011;46552;52.150;8.428;2022-07-15T13:01:07;8.03;;;1.00;;
4434;SDS011;46552;52.150;8.428;2022-07-15T13:03:35;5.40;;;1.30;;
4434;SDS011;46552;52.150;8.428;2022-07-15T13:06:03;5.20;;;1.03;;
4434;SDS011;46552;52.150;8.428;2022-07-15T13:08:31;3.30;;;1.00;;
4434;SDS011;46552;52.150;8.428;2022-07-15T13:11:00;3.47;;;0.77;;
4434;SDS011;46552;52.150;8.428;2022-07-15T13:13:30;4.37;;;0.60;;
4434;SDS011;46552;52.150;8.428;2022-07-15T13:16:00;8.03;;;0.97;;
4434;SDS011;46552;52.150;8.428;2022-07-15T13:18:28;4.70;;;0.83;;
4434;SDS011;46552;52.150;8.428;2022-07-15T13:20:56;5.30;;;0.80;;
4434;SDS011;46552;52.150;8.428;2022-07-15T13:23:23;2.70;;;0.70;;
4434;SDS011;46552;52.150;8.428;2022-07-15T13:25:51;3.97;;;0.90;;
4434;SDS011;46552;52.150;8.428;2022-07-15T13:28:19;5.50;;;0.80;;
4434;SDS011;46552;52.150;8.428;2022-07-15T13:30:46;6.90;;;1.27;;
4434;SDS011;46552;52.150;8.428;2022-07-15T13:33:15;8.97;;;0.83;;
4434;SDS011;46552;52.150;8.428;2022-07-15T13:35:42;2.13;;;0.70;;
4434;SDS011;46552;52.150;8.428;2022-07-15T13:38:11;3.43;;;1.40;;
4434;SDS011;46552;52.150;8.428;2022-07-15T13:40:39;2.57;;;0.90;;
4434;SDS011;46552;52.150;8.428;2022-07-15T13:43:06;7.20;;;1.20;;
4434;SDS011;46552;52.150;8.428;2022-07-15T13:45:34;2.83;;;0.67;;
4434;SDS011;46552;52.150;8.428;2022-07-15T13:48:01;2.50;;;0.70;;
4434;SDS011;46552;52.150;8.428;2022-07-15T13:50:30;3.37;;;0.83;;
4434;SDS011;46552;52.150;8.428;2022-07-15T13:53:14;2.97;;;0.60;;
4434;SDS011;46552;52.150;8.428;2022-07-15T13:55:41;1.70;;;0.40;;
4434;SDS011;46552;52.150;8.428;2022-07-15T13:58:09;2.70;;;0.60;;
4434;SDS011;46552;52.150;8.428;2022-07-15T14:00:38;3.10;;;0.90;;
4434;SDS011;46552;52.150;8.428;2022-07-15T14:03:05;2.07;;;0.93;;
4434;SDS011;46552;52.150;8.428;2022-07-15T14:05:35;4.70;;;1.20;;
4434;SDS011;46552;52.150;8.428;2022-07-15T14:08:04;1.70;;;0.53;;
4434;SDS011;46552;52.150;8.428;2022-07-15T14:10:31;2.93;;;0.60;;
4434;SDS011;46552;52.150;8.428;2022-07-15T14:12:59;4.90;;;0.87;;
4434;SDS011;46552;52.150;8.428;2022-07-15T14:15:26;3.30;;;0.70;;
4434;SDS011;46552;52.150;8.428;2022-07-15T14:17:54;3.73;;;1.07;;
4434;SDS011;46552;52.150;8.428;2022-07-15T14:20:22;2.37;;;0.47;;
4434;SDS011;46552;52.150;8.428;2022-07-15T14:22:50;5.50;;;1.20;;
4434;SDS011;46552;52.150;8.428;2022-07-15T14:25:17;4.10;;;0.80;;
4434;SDS011;46552;52.150;8.428;2022-07-15T14:27:44;4.50;;;0.83;;
4434;SDS011;46552;52.150;8.428;2022-07-15T14:30:11;4.30;;;0.70;;
4434;SDS011;46552;52.150;8.428;2022-07-15T14:32:41;5.03;;;1.10;;
4434;SDS011;46552;52.150;8.428;2022-07-15T14:35:10;4.60;;;0.77;;
4434;SDS011;46552;52.150;8.428;2022-07-15T14:37:37;2.07;;;0.87;;
4434;SDS011;46552;52.150;8.428;2022-07-15T14:40:07;5.47;;;0.60;;
4434;SDS011;46552;52.150;8.428;2022-07-15T14:42:34;3.63;;;0.60;;
4434;SDS011;46552;52.150;8.428;2022-07-15T14:45:04;4.33;;;0.83;;
4434;SDS011;46552;52.150;8.428;2022-07-15T14:47:32;3.30;;;1.10;;
4434;SDS011;46552;52.150;8.428;2022-07-15T14:50:00;1.83;;;0.50;;
4434;SDS011;46552;52.150;8.428;2022-07-15T14:52:28;3.17;;;1.20;;
4434;SDS011;46552;52.150;8.428;2022-07-15T14:54:55;2.07;;;0.63;;
4434;SDS011;46552;52.150;8.428;2022-07-15T14:57:23;7.70;;;0.60;;
4434;SDS011;46552;52.150;8.428;2022-07-15T14:59:50;2.37;;;0.60;;
4434;SDS011;46552;52.150;8.428;2022-07-15T15:02:18;1.80;;;0.50;;
4434;SDS011;46552;52.150;8.428;2022-07-15T15:04:47;4.03;;;0.97;;
4434;SDS011;46552;52.150;8.428;2022-07-15T15:07:14;6.83;;;0.50;;
4434;SDS011;46552;52.150;8.428;2022-07-15T15:09:43;3.93;;;0.70;;
4434;SDS011;46552;52.150;8.428;2022-07-15T15:12:10;1.73;;;0.70;;
4434;SDS011;46552;52.150;8.428;2022-07-15T15:14:42;2.30;;;0.60;;
4434;SDS011;46552;52.150;8.428;2022-07-15T15:17:09;1.50;;;0.50;;
4434;SDS011;46552;52.150;8.428;2022-07-15T15:19:36;1.80;;;0.50;;
4434;SDS011;46552;52.150;8.428;2022-07-15T15:22:04;4.73;;;1.10;;
4434;SDS011;46552;52.150;8.428;2022-07-15T15:24:32;2.00;;;0.70;;
4434;SDS011;46552;52.150;8.428;2022-07-15T15:26:59;2.17;;;0.90;;
4434;SDS011;46552;52.150;8.428;2022-07-15T15:29:27;4.10;;;0.73;;